Airfield :
LOGIN :

Register | Disclaimer

   EN    FR    IT 

 










Legend :    VFR   Marginal VFR   IFR   Intensive IFR   Very Intensive IFR
Visi :
Ceiling :
>= 8 km
>= 3000ft
5 to 8 km
1000 to 3000 ft
1500m to 5 km
500 to 1000 ft
800 to 1500m
200 to 500 ft
< 800m
< 200 ft
Symbols :   Thunderstorms  Fog  Heavy snow  Heavy precipitations  Wind > 20 kt
SIGMETs :     Misc.  Thunderstorms  Icing  Turbulence  Mountain Waves  Volcanic Ashes






- Airport Elevation : 162 ft
- IATA code : BOD


LFBD - Bordeaux / Merignac

CURRENT METAR :
  • 021130Z AUTO 05005KT 360V110 CAVOK 25/09 Q1019 NOSIG

EXPIRED METARs :
  • 021100Z AUTO 06007KT 010V100 CAVOK 25/10 Q1019 NOSIG
  • 021030Z AUTO 06005KT 010V100 CAVOK 25/09 Q1019 NOSIG
  • 021000Z AUTO 09006KT 050V120 CAVOK 25/10 Q1019 NOSIG
  • 020930Z AUTO 07005KT 040V150 CAVOK 24/10 Q1019 NOSIG
  • 020900Z AUTO 08006KT 040V120 CAVOK 23/10 Q1019 NOSIG

TAF AMD TAF LFBD
Valid from the 02 at 07:00 until the 03 at 12:00 UTC


020705Z 0207/0312 09005KT CAVOK TX29/0215Z TN15/0305Z
BECMG 0216/0218 36010KT
PROB30
TEMPO 0305/0308 SCT010
ATIS : +33 5 57 92 81 04



MET'MAP, your aeronautical weather chart ! - Copyright ORBIFLY December 2007 - Disclaimer

ORBIFLY MET'MAP TEAM :

Programming & Development : Alexandra Zaïnal
Original concept : Baudouin d'Aumeries
Technical & hardware support : Manuel Goepfert
Assistance : Marc-Olivier Méhu




SOURCES & CREDITS :

   NOAA